createdAt,value
2018-05-04T00:00:18.328Z,1.97
2018-05-04T00:01:20.813Z,2.27
2018-05-04T00:02:23.321Z,2.20
2018-05-04T00:03:25.871Z,2.00
2018-05-04T00:04:28.342Z,1.60
2018-05-04T00:05:30.887Z,2.33
2018-05-04T00:06:33.448Z,1.90
2018-05-04T00:07:36.011Z,2.00
2018-05-04T00:08:38.566Z,1.80
2018-05-04T00:09:41.049Z,1.80
2018-05-04T00:10:43.518Z,1.87
2018-05-04T00:11:46.021Z,2.50
2018-05-04T00:12:48.577Z,1.97
2018-05-04T00:13:51.066Z,2.60
2018-05-04T00:14:53.553Z,1.70
2018-05-04T00:15:56.033Z,2.37
2018-05-04T00:16:58.533Z,1.80
2018-05-04T00:18:01.035Z,2.20
2018-05-04T00:19:03.571Z,1.80
2018-05-04T00:20:06.047Z,1.73
2018-05-04T00:21:08.551Z,2.03
2018-05-04T00:22:11.027Z,2.07
2018-05-04T00:23:13.547Z,1.97
2018-05-04T00:24:16.052Z,2.00
2018-05-04T00:25:18.536Z,1.93
2018-05-04T00:26:21.029Z,1.70
2018-05-04T00:27:23.518Z,1.80
2018-05-04T00:28:26.023Z,1.80
2018-05-04T00:29:28.529Z,2.10
2018-05-04T00:30:31.096Z,1.57
2018-05-04T00:31:33.589Z,2.03
2018-05-04T00:32:36.072Z,1.93
2018-05-04T00:33:38.566Z,1.90
2018-05-04T00:34:41.078Z,1.70
2018-05-04T00:35:43.561Z,1.70
2018-05-04T00:36:46.135Z,1.60
2018-05-04T00:37:48.639Z,1.97
2018-05-04T00:38:51.114Z,2.13
2018-05-04T00:39:53.626Z,1.70
2018-05-04T00:40:56.113Z,1.83
2018-05-04T00:41:58.594Z,1.90
2018-05-04T00:43:01.105Z,2.10
2018-05-04T00:44:03.669Z,1.90
2018-05-04T00:45:06.223Z,1.50
2018-05-04T00:46:08.781Z,1.60
2018-05-04T00:47:11.269Z,1.63
2018-05-04T00:48:13.757Z,2.13
2018-05-04T00:49:16.248Z,1.90
2018-05-04T00:50:18.757Z,1.83
2018-05-04T00:51:21.259Z,2.00
2018-05-04T00:52:23.745Z,1.80
2018-05-04T00:53:26.255Z,1.80
2018-05-04T00:54:28.726Z,1.50
2018-05-04T00:55:31.240Z,1.73
2018-05-04T00:56:33.743Z,1.40
2018-05-04T00:57:36.248Z,2.00
2018-05-04T00:58:38.737Z,2.00
2018-05-04T00:59:41.244Z,1.70
2018-05-04T01:00:43.753Z,1.60
2018-05-04T01:01:46.240Z,1.87
2018-05-04T01:02:48.739Z,1.50
2018-05-04T01:03:51.215Z,2.00
2018-05-04T01:04:53.705Z,1.50
2018-05-04T01:05:56.234Z,1.80
2018-05-04T01:06:58.735Z,1.90
2018-05-04T01:08:01.223Z,1.83
2018-05-04T01:09:06.364Z,1.90
2018-05-04T01:10:08.856Z,1.97
2018-05-04T01:11:11.354Z,1.57
2018-05-04T01:12:13.826Z,1.63
2018-05-04T01:13:16.302Z,1.50
2018-05-04T01:14:18.829Z,1.20
2018-05-04T01:15:21.386Z,2.03
2018-05-04T01:16:23.949Z,1.70
2018-05-04T01:17:26.438Z,1.87
2018-05-04T01:18:28.967Z,1.70
2018-05-04T01:19:31.457Z,2.07
2018-05-04T01:20:33.945Z,1.50
2018-05-04T01:21:36.496Z,1.80
2018-05-04T01:22:38.999Z,1.60
2018-05-04T01:23:41.474Z,1.50
2018-05-04T01:24:43.960Z,1.40
2018-05-04T01:25:46.465Z,1.40
2018-05-04T01:26:48.995Z,1.80
2018-05-04T01:27:51.485Z,1.60
2018-05-04T01:28:53.976Z,1.43
2018-05-04T01:29:56.483Z,1.67
2018-05-04T01:30:58.972Z,1.50
2018-05-04T01:32:01.477Z,1.70
2018-05-04T01:33:03.942Z,1.70
2018-05-04T01:34:06.503Z,1.53
2018-05-04T01:35:09.011Z,1.60
2018-05-04T01:36:11.497Z,2.00
2018-05-04T01:37:14.028Z,1.70
2018-05-04T01:38:16.531Z,1.60
2018-05-04T01:39:19.029Z,1.73
2018-05-04T01:40:21.517Z,1.63
2018-05-04T01:41:24.063Z,1.83
2018-05-04T01:42:26.551Z,1.70
2018-05-04T01:43:29.079Z,2.10
2018-05-04T01:44:31.583Z,1.60
2018-05-04T01:45:34.094Z,1.77
2018-05-04T01:46:36.585Z,1.50
2018-05-04T01:47:39.090Z,1.77
2018-05-04T01:48:41.595Z,1.67
2018-05-04T01:49:44.071Z,1.53
2018-05-04T01:50:46.553Z,1.90
2018-05-04T01:51:49.034Z,1.60
2018-05-04T01:52:51.601Z,1.83
2018-05-04T01:53:54.112Z,1.40
2018-05-04T01:54:56.600Z,1.73
2018-05-04T01:55:59.100Z,1.90
2018-05-04T01:57:01.585Z,1.50
2018-05-04T01:58:04.089Z,1.57
2018-05-04T01:59:06.578Z,1.50
2018-05-04T02:00:09.050Z,1.60
2018-05-04T02:01:11.521Z,1.80
2018-05-04T02:02:13.992Z,1.80
2018-05-04T02:03:16.478Z,1.67
2018-05-04T02:04:18.965Z,1.77
2018-05-04T02:05:21.459Z,1.80
2018-05-04T02:06:23.930Z,1.60
2018-05-04T02:07:26.417Z,1.70
2018-05-04T02:08:28.925Z,1.83
2018-05-04T02:09:31.397Z,1.97
2018-05-04T02:10:33.902Z,1.50
2018-05-04T02:11:36.389Z,1.70
2018-05-04T02:12:38.916Z,1.80
2018-05-04T02:13:41.476Z,1.87
2018-05-04T02:14:44.038Z,1.60
2018-05-04T02:15:46.523Z,1.70
2018-05-04T02:16:49.053Z,1.40
2018-05-04T02:17:51.548Z,1.67
2018-05-04T02:18:54.048Z,1.40
2018-05-04T02:19:56.536Z,1.47
2018-05-04T02:20:59.032Z,1.37
2018-05-04T02:22:01.503Z,1.37
2018-05-04T02:23:03.989Z,1.50
2018-05-04T02:24:06.492Z,1.67
2018-05-04T02:25:08.995Z,1.70
2018-05-04T02:26:11.500Z,1.50
2018-05-04T02:27:14.008Z,1.37
2018-05-04T02:28:16.495Z,1.50
2018-05-04T02:29:19.006Z,1.57
2018-05-04T02:30:21.524Z,1.30
2018-05-04T02:31:24.028Z,1.83
2018-05-04T02:32:26.526Z,1.47
2018-05-04T02:33:29.013Z,2.07
2018-05-04T02:34:31.552Z,1.90
2018-05-04T02:35:34.045Z,1.23
2018-05-04T02:36:36.563Z,1.67
2018-05-04T02:37:39.034Z,1.40
2018-05-04T02:38:41.559Z,1.60
2018-05-04T02:39:44.145Z,1.40
2018-05-04T02:40:46.709Z,1.67
2018-05-04T02:41:49.269Z,1.43
2018-05-04T02:42:51.757Z,1.73
2018-05-04T02:43:54.252Z,1.50
2018-05-04T02:44:56.742Z,1.67
2018-05-04T02:45:59.237Z,1.63
2018-05-04T02:47:01.726Z,1.70
2018-05-04T02:48:04.216Z,1.53
2018-05-04T02:49:06.704Z,1.73
2018-05-04T02:50:09.219Z,2.40
2018-05-04T02:51:12.653Z,1.50
2018-05-04T02:52:15.177Z,1.80
2018-05-04T02:53:17.660Z,1.57
2018-05-04T02:54:20.194Z,1.40
2018-05-04T02:55:22.732Z,1.40
2018-05-04T02:56:25.226Z,2.00
2018-05-04T02:57:27.732Z,1.40
2018-05-04T02:58:30.220Z,1.43
2018-05-04T02:59:32.747Z,1.50
2018-05-04T03:00:35.252Z,1.73
2018-05-04T03:01:37.759Z,1.50
2018-05-04T03:02:40.267Z,1.40
2018-05-04T03:03:42.757Z,1.50
2018-05-04T03:04:45.228Z,1.50
2018-05-04T03:05:47.740Z,2.10
2018-05-04T03:06:50.224Z,1.30
2018-05-04T03:07:52.709Z,1.50
2018-05-04T03:08:55.197Z,1.43
2018-05-04T03:09:57.703Z,1.50
2018-05-04T03:11:00.217Z,1.50
2018-05-04T03:12:02.687Z,1.50
2018-05-04T03:13:05.160Z,1.40
2018-05-04T03:14:07.630Z,1.20
2018-05-04T03:15:10.146Z,1.23
2018-05-04T03:16:12.639Z,1.40
2018-05-04T03:17:15.121Z,1.53
2018-05-04T03:18:17.587Z,1.67
2018-05-04T03:19:20.073Z,1.50
2018-05-04T03:20:22.557Z,1.47
2018-05-04T03:21:25.050Z,1.10
2018-05-04T03:22:27.555Z,1.30
2018-05-04T03:23:30.060Z,1.67
2018-05-04T03:24:32.549Z,1.30
2018-05-04T03:25:35.054Z,1.50
2018-05-04T03:26:37.573Z,1.77
2018-05-04T03:27:40.069Z,1.50
2018-05-04T03:28:42.630Z,1.27
2018-05-04T03:29:45.102Z,1.57
2018-05-04T03:30:47.649Z,1.77
2018-05-04T03:31:50.143Z,1.10
2018-05-04T03:32:52.619Z,1.97
2018-05-04T03:33:55.123Z,1.17
2018-05-04T03:34:57.613Z,1.20
2018-05-04T03:36:00.092Z,1.80
2018-05-04T03:37:02.593Z,1.60
2018-05-04T03:38:05.081Z,1.63
2018-05-04T03:39:07.589Z,1.60
2018-05-04T03:40:10.085Z,1.20
2018-05-04T03:41:12.591Z,1.30
2018-05-04T03:42:15.089Z,1.67
2018-05-04T03:43:17.628Z,1.43
2018-05-04T03:44:20.121Z,1.93
2018-05-04T03:45:22.617Z,1.30
2018-05-04T03:46:25.088Z,1.37
2018-05-04T03:47:27.588Z,1.70
2018-05-04T03:48:30.095Z,1.60
2018-05-04T03:49:32.574Z,1.80
2018-05-04T03:50:35.062Z,1.50
2018-05-04T03:51:37.567Z,1.70
2018-05-04T03:52:40.099Z,1.77
2018-05-04T03:53:42.606Z,1.40
2018-05-04T03:54:45.093Z,2.47
2018-05-04T03:55:47.658Z,1.93
2018-05-04T03:56:50.218Z,1.70
2018-05-04T03:58:04.656Z,1.40
2018-05-04T03:59:18.982Z,1.77
2018-05-04T04:00:33.426Z,1.47
2018-05-04T04:01:47.778Z,1.47
2018-05-04T04:03:02.202Z,1.37
2018-05-04T04:04:13.184Z,1.33
2018-05-04T04:05:15.673Z,1.63
2018-05-04T04:06:18.159Z,1.77
2018-05-04T04:07:20.645Z,1.30
2018-05-04T04:08:23.179Z,1.40
2018-05-04T04:09:25.658Z,1.53
2018-05-04T04:10:28.141Z,1.20
2018-05-04T04:11:30.613Z,1.50
2018-05-04T04:12:33.092Z,1.30
2018-05-04T04:13:35.623Z,1.60
2018-05-04T04:14:38.127Z,1.40
2018-05-04T04:15:40.621Z,1.30
2018-05-04T04:16:43.095Z,1.40
2018-05-04T04:17:45.567Z,1.50
2018-05-04T04:18:48.076Z,1.43
2018-05-04T04:19:50.557Z,1.10
2018-05-04T04:20:53.049Z,1.40
2018-05-04T04:21:55.559Z,1.60
2018-05-04T04:22:58.049Z,1.37
2018-05-04T04:24:00.633Z,1.33
2018-05-04T04:25:03.873Z,1.40
2018-05-04T04:26:06.360Z,1.43
2018-05-04T04:27:08.869Z,1.30
2018-05-04T04:28:11.416Z,1.30
2018-05-04T04:29:13.870Z,1.40
2018-05-04T04:30:16.371Z,1.10
2018-05-04T04:31:18.842Z,1.37
2018-05-04T04:32:21.324Z,1.57
2018-05-04T04:33:23.806Z,1.53
2018-05-04T04:34:26.338Z,1.40
2018-05-04T04:35:28.852Z,1.37
2018-05-04T04:36:31.348Z,1.43
2018-05-04T04:37:33.818Z,1.30
2018-05-04T04:38:36.298Z,1.10
2018-05-04T04:39:38.802Z,1.03
2018-05-04T04:40:41.299Z,1.10
2018-05-04T04:41:43.883Z,1.10
2018-05-04T04:42:46.355Z,1.20
2018-05-04T04:43:48.848Z,1.30
2018-05-04T04:44:51.358Z,1.97
2018-05-04T04:45:53.853Z,1.40
2018-05-04T04:46:56.327Z,1.70
2018-05-04T04:47:58.813Z,1.70
2018-05-04T04:49:01.301Z,1.30
2018-05-04T04:50:03.857Z,1.40
2018-05-04T04:51:06.417Z,1.33
2018-05-04T04:52:08.896Z,1.70
2018-05-04T04:53:11.393Z,1.43
2018-05-04T04:54:13.885Z,1.27
2018-05-04T04:55:16.382Z,1.67
2018-05-04T04:56:18.865Z,1.60
2018-05-04T04:57:21.449Z,1.50
2018-05-04T04:58:23.932Z,1.70
2018-05-04T04:59:26.436Z,1.30
2018-05-04T05:00:28.944Z,1.70
2018-05-04T05:01:31.431Z,1.53
2018-05-04T05:02:33.960Z,1.30
2018-05-04T05:03:36.449Z,1.30
2018-05-04T05:04:38.953Z,1.63
2018-05-04T05:05:41.464Z,1.47
2018-05-04T05:06:43.953Z,1.30
2018-05-04T05:07:46.452Z,1.33
2018-05-04T05:08:48.942Z,1.40
2018-05-04T05:09:51.437Z,1.67
2018-05-04T05:10:53.946Z,1.63
2018-05-04T05:11:56.440Z,1.20
2018-05-04T05:12:58.936Z,1.20
2018-05-04T05:14:01.421Z,1.30
2018-05-04T05:15:03.923Z,1.30
2018-05-04T05:16:06.555Z,1.30
2018-05-04T05:17:09.059Z,1.40
2018-05-04T05:18:11.535Z,1.10
2018-05-04T05:19:14.016Z,1.33
2018-05-04T05:20:16.509Z,1.27
2018-05-04T05:21:19.018Z,1.43
2018-05-04T05:22:21.514Z,1.30
2018-05-04T05:23:23.990Z,1.53
2018-05-04T05:24:26.476Z,1.40
2018-05-04T05:25:28.948Z,1.43
2018-05-04T05:26:31.511Z,1.00
2018-05-04T05:27:34.015Z,1.30
2018-05-04T05:28:36.538Z,1.37
2018-05-04T05:29:39.060Z,1.40
2018-05-04T05:30:41.566Z,1.40
2018-05-04T05:31:44.073Z,1.30
2018-05-04T05:32:46.547Z,1.57
2018-05-04T05:33:49.040Z,1.50
2018-05-04T05:34:51.582Z,1.40
2018-05-04T05:35:54.142Z,1.40
2018-05-04T05:36:56.728Z,1.97
2018-05-04T05:37:59.237Z,1.60
2018-05-04T05:39:01.725Z,1.63
2018-05-04T05:40:04.284Z,2.20
2018-05-04T05:41:06.844Z,2.60
2018-05-04T05:42:09.352Z,2.20
2018-05-04T05:43:11.855Z,2.40
2018-05-04T05:44:14.349Z,2.30
2018-05-04T05:45:16.865Z,3.90
2018-05-04T05:46:19.341Z,3.53
2018-05-04T05:47:21.879Z,3.57
2018-05-04T05:48:24.359Z,3.77
2018-05-04T05:49:26.856Z,3.80
2018-05-04T05:50:29.372Z,4.23
2018-05-04T05:51:31.929Z,5.13
2018-05-04T05:52:34.447Z,4.80
2018-05-04T05:53:36.964Z,4.43
2018-05-04T05:54:39.482Z,3.90
2018-05-04T05:55:41.955Z,4.80
2018-05-04T05:56:44.445Z,4.90
2018-05-04T05:57:46.968Z,4.53
2018-05-04T05:58:49.447Z,4.50
2018-05-04T05:59:51.946Z,5.43
2018-05-04T06:00:54.451Z,4.43
2018-05-04T06:01:56.948Z,5.23
2018-05-04T06:02:59.457Z,4.67
2018-05-04T06:04:02.074Z,4.83
2018-05-04T06:05:04.597Z,5.37
2018-05-04T06:06:07.102Z,4.90
2018-05-04T06:07:09.714Z,4.53
2018-05-04T06:08:12.278Z,4.90
2018-05-04T06:09:14.850Z,4.40
2018-05-04T06:10:17.397Z,4.33
2018-05-04T06:11:19.961Z,4.50
2018-05-04T06:12:22.503Z,4.37
2018-05-04T06:13:25.073Z,3.53
2018-05-04T06:14:27.544Z,4.00
2018-05-04T06:15:30.040Z,4.33
2018-05-04T06:16:32.532Z,4.33
2018-05-04T06:17:35.040Z,3.97
2018-05-04T06:18:37.530Z,4.30
2018-05-04T06:19:40.038Z,3.83
2018-05-04T06:20:42.645Z,4.10
2018-05-04T06:21:45.148Z,3.30
2018-05-04T06:22:47.640Z,4.37
2018-05-04T06:23:50.148Z,4.20
2018-05-04T06:24:52.728Z,3.33
2018-05-04T06:25:55.221Z,3.23
2018-05-04T06:26:57.725Z,3.97
2018-05-04T06:28:00.212Z,3.77
2018-05-04T06:29:02.722Z,2.97
2018-05-04T06:30:05.227Z,2.80
2018-05-04T06:31:07.733Z,3.47
2018-05-04T06:32:10.240Z,2.93
2018-05-04T06:33:12.720Z,3.23
2018-05-04T06:34:15.526Z,3.50
2018-05-04T06:35:18.009Z,3.00
2018-05-04T06:36:20.505Z,3.00
2018-05-04T06:37:23.010Z,2.87
2018-05-04T06:38:25.487Z,3.57
2018-05-04T06:39:27.970Z,2.70
2018-05-04T06:40:30.517Z,3.17
2018-05-04T06:41:33.079Z,3.23
2018-05-04T06:42:35.638Z,3.17
2018-05-04T06:43:38.259Z,2.90
2018-05-04T06:44:40.847Z,3.00
2018-05-04T06:45:43.353Z,2.90
2018-05-04T06:46:45.812Z,3.10
2018-05-04T06:47:48.312Z,3.37
2018-05-04T06:48:50.782Z,2.90
2018-05-04T06:49:53.309Z,3.30
2018-05-04T06:50:55.819Z,3.00
2018-05-04T06:51:58.323Z,2.80
2018-05-04T06:53:00.813Z,3.40
2018-05-04T06:54:03.305Z,3.03
2018-05-04T06:55:05.809Z,3.27
2018-05-04T06:56:08.316Z,3.10
2018-05-04T06:57:10.794Z,2.87
2018-05-04T06:58:13.317Z,2.70
2018-05-04T06:59:15.901Z,3.00
2018-05-04T07:00:18.366Z,2.63
2018-05-04T07:01:20.853Z,3.10
2018-05-04T07:02:23.336Z,2.93
2018-05-04T07:03:25.810Z,2.80
2018-05-04T07:04:28.324Z,2.70
2018-05-04T07:05:30.839Z,2.97
2018-05-04T07:06:33.351Z,2.80
2018-05-04T07:07:35.822Z,2.70
2018-05-04T07:08:38.715Z,2.57
2018-05-04T07:09:41.229Z,3.37
2018-05-04T07:10:43.718Z,3.00
2018-05-04T07:11:46.238Z,2.73
2018-05-04T07:12:48.750Z,3.00
2018-05-04T07:13:51.293Z,2.80
2018-05-04T07:14:53.811Z,2.87
2018-05-04T07:15:56.306Z,2.83
2018-05-04T07:16:58.806Z,2.77
2018-05-04T07:18:01.303Z,2.53
2018-05-04T07:19:03.842Z,3.00
2018-05-04T07:20:06.371Z,2.70
2018-05-04T07:21:08.921Z,2.50
2018-05-04T07:22:11.462Z,2.73
2018-05-04T07:23:14.036Z,3.03
2018-05-04T07:24:16.581Z,2.50
2018-05-04T07:25:19.157Z,3.10
2018-05-04T07:26:21.676Z,2.70
2018-05-04T07:27:24.181Z,2.70
2018-05-04T07:28:26.654Z,3.10
2018-05-04T07:29:29.127Z,2.90
2018-05-04T07:30:31.661Z,2.63
2018-05-04T07:31:34.162Z,2.50
2018-05-04T07:32:36.662Z,3.07
2018-05-04T07:33:39.235Z,2.87
2018-05-04T07:34:41.795Z,2.37
2018-05-04T07:35:44.297Z,2.40
2018-05-04T07:36:46.836Z,2.40
2018-05-04T07:37:49.371Z,2.37
2018-05-04T07:38:51.816Z,2.70
2018-05-04T07:39:54.331Z,2.50
2018-05-04T07:40:56.811Z,2.63
2018-05-04T07:41:59.325Z,2.50
2018-05-04T07:43:01.798Z,2.40
2018-05-04T07:44:04.289Z,2.70
2018-05-04T07:45:06.853Z,2.80
2018-05-04T07:46:09.326Z,2.63
2018-05-04T07:47:11.836Z,2.60
2018-05-04T07:48:14.340Z,2.40
2018-05-04T07:49:16.856Z,2.73
2018-05-04T07:50:19.365Z,2.30
2018-05-04T07:51:21.841Z,2.87
2018-05-04T07:52:24.322Z,2.63
2018-05-04T07:53:26.814Z,2.27
2018-05-04T07:54:29.335Z,2.47
2018-05-04T07:55:31.839Z,2.10
2018-05-04T07:56:37.049Z,2.50
2018-05-04T07:57:39.553Z,2.40
2018-05-04T07:58:42.055Z,2.33
2018-05-04T07:59:44.569Z,2.43
2018-05-04T08:00:47.081Z,2.73
2018-05-04T08:01:49.565Z,2.70
2018-05-04T08:02:52.124Z,2.60
2018-05-04T08:03:54.647Z,2.37
2018-05-04T08:04:57.197Z,2.27
2018-05-04T08:05:59.686Z,1.90
2018-05-04T08:07:02.172Z,3.07
2018-05-04T08:08:04.690Z,2.63
2018-05-04T08:09:07.195Z,2.87
2018-05-04T08:10:09.700Z,2.90
2018-05-04T08:11:12.211Z,2.33
2018-05-04T08:12:14.697Z,2.57
2018-05-04T08:13:17.236Z,2.63
2018-05-04T08:14:19.796Z,2.97
2018-05-04T08:15:22.355Z,2.80
2018-05-04T08:16:24.826Z,2.00
2018-05-04T08:17:27.330Z,2.40
2018-05-04T08:18:29.823Z,2.20
2018-05-04T08:19:32.302Z,2.43
2018-05-04T08:20:34.810Z,2.10
2018-05-04T08:21:37.301Z,2.60
2018-05-04T08:22:39.784Z,2.80
2018-05-04T08:23:42.299Z,2.80
2018-05-04T08:24:44.986Z,2.33
2018-05-04T08:25:47.641Z,2.30
2018-05-04T08:26:50.208Z,2.30
2018-05-04T08:27:52.694Z,2.13
2018-05-04T08:28:55.202Z,2.73
2018-05-04T08:29:57.688Z,2.10
2018-05-04T08:31:00.180Z,2.43
2018-05-04T08:32:02.669Z,2.30
2018-05-04T08:33:05.159Z,2.60
2018-05-04T08:34:07.689Z,2.27
2018-05-04T08:35:10.222Z,2.60
2018-05-04T08:36:12.739Z,2.43
2018-05-04T08:37:15.301Z,2.57
2018-05-04T08:38:17.859Z,2.27
2018-05-04T08:39:20.421Z,2.33
2018-05-04T08:40:22.978Z,2.43
2018-05-04T08:41:25.469Z,1.93
2018-05-04T08:42:27.996Z,2.50
2018-05-04T08:43:30.558Z,2.43
2018-05-04T08:44:33.064Z,2.63
2018-05-04T08:45:35.574Z,2.60
2018-05-04T08:46:38.097Z,2.47
2018-05-04T08:47:40.591Z,2.40
2018-05-04T08:48:43.061Z,2.57
2018-05-04T08:49:45.569Z,2.30
2018-05-04T08:50:48.098Z,2.63
2018-05-04T08:51:50.588Z,2.53
2018-05-04T08:52:53.073Z,2.30
2018-05-04T08:53:55.564Z,2.80
2018-05-04T08:54:58.098Z,2.33
2018-05-04T08:56:00.592Z,2.60
2018-05-04T08:57:03.176Z,2.37
2018-05-04T08:58:05.609Z,2.13
2018-05-04T08:59:08.099Z,2.50
2018-05-04T09:00:10.620Z,2.63
2018-05-04T09:01:13.133Z,2.60
2018-05-04T09:02:15.626Z,2.97
2018-05-04T09:03:18.179Z,2.73
2018-05-04T09:04:20.669Z,2.07
2018-05-04T09:05:23.239Z,2.20
2018-05-04T09:06:25.716Z,2.40
2018-05-04T09:07:28.243Z,2.50
2018-05-04T09:08:30.728Z,2.53
2018-05-04T09:09:33.221Z,2.87
2018-05-04T09:10:35.794Z,2.83
2018-05-04T09:11:38.325Z,2.30
2018-05-04T09:12:40.838Z,2.40
2018-05-04T09:13:43.337Z,2.37
2018-05-04T09:14:45.810Z,2.30
2018-05-04T09:15:48.343Z,2.33
2018-05-04T09:16:50.858Z,2.70
2018-05-04T09:17:53.351Z,2.63
2018-05-04T09:18:55.851Z,2.43
2018-05-04T09:19:58.330Z,2.40
2018-05-04T09:21:00.811Z,2.63
2018-05-04T09:22:03.315Z,2.40
2018-05-04T09:23:05.896Z,2.50
2018-05-04T09:24:08.453Z,2.07
2018-05-04T09:25:10.963Z,2.33
2018-05-04T09:26:13.487Z,2.70
2018-05-04T09:27:15.991Z,2.17
2018-05-04T09:28:18.499Z,2.30
2018-05-04T09:29:21.011Z,2.70
2018-05-04T09:30:23.532Z,2.60
2018-05-04T09:31:26.037Z,2.10
2018-05-04T09:32:28.528Z,2.40
2018-05-04T09:33:31.087Z,2.40
2018-05-04T09:34:33.595Z,2.47
2018-05-04T09:35:36.081Z,2.10
2018-05-04T09:36:38.593Z,2.40
2018-05-04T09:37:41.082Z,2.50
2018-05-04T09:38:43.577Z,2.30
2018-05-04T09:39:46.061Z,2.23
2018-05-04T09:40:48.556Z,2.40
2018-05-04T09:41:51.157Z,2.37
2018-05-04T09:42:53.631Z,2.70
2018-05-04T09:43:56.135Z,2.53
2018-05-04T09:44:58.621Z,2.43
2018-05-04T09:46:01.128Z,2.37
2018-05-04T09:47:03.617Z,3.00
2018-05-04T09:48:06.086Z,2.47
2018-05-04T09:49:08.581Z,2.40
2018-05-04T09:50:11.099Z,2.83
2018-05-04T09:51:13.592Z,3.00
2018-05-04T09:52:16.110Z,2.40
2018-05-04T09:53:18.602Z,2.43
2018-05-04T09:54:21.089Z,2.70
2018-05-04T09:55:23.557Z,2.60
2018-05-04T09:56:26.064Z,2.30
2018-05-04T09:57:28.570Z,2.50
2018-05-04T09:58:31.095Z,2.80
2018-05-04T09:59:33.661Z,2.13
2018-05-04T10:00:36.205Z,2.80
2018-05-04T10:01:38.679Z,2.37
2018-05-04T10:02:41.201Z,2.33
2018-05-04T10:03:43.689Z,2.03
2018-05-04T10:04:46.234Z,2.30
2018-05-04T10:05:48.742Z,2.33
2018-05-04T10:06:51.271Z,2.53
2018-05-04T10:07:53.829Z,2.43
2018-05-04T10:08:56.328Z,2.07
2018-05-04T10:09:58.816Z,2.40
2018-05-04T10:11:01.321Z,2.17
2018-05-04T10:12:03.829Z,2.37
2018-05-04T10:13:06.337Z,2.33
2018-05-04T10:14:08.820Z,2.23
2018-05-04T10:15:11.355Z,2.37
2018-05-04T10:16:13.860Z,2.43
2018-05-04T10:17:16.330Z,2.27
2018-05-04T10:18:18.836Z,2.57
2018-05-04T10:19:21.318Z,2.67
2018-05-04T10:20:23.815Z,3.17
2018-05-04T10:21:26.287Z,2.40
2018-05-04T10:22:28.789Z,2.70
2018-05-04T10:23:31.297Z,2.33
2018-05-04T10:24:33.789Z,2.60
2018-05-04T10:25:36.286Z,2.27
2018-05-04T10:26:38.787Z,2.97
2018-05-04T10:27:41.277Z,2.50
2018-05-04T10:28:43.784Z,2.33
2018-05-04T10:29:46.296Z,2.60
2018-05-04T10:30:48.800Z,2.37
2018-05-04T10:31:51.289Z,2.87
2018-05-04T10:32:53.791Z,2.30
2018-05-04T10:33:56.297Z,2.50
2018-05-04T10:34:58.801Z,2.47
2018-05-04T10:36:01.311Z,2.37
2018-05-04T10:37:03.782Z,2.63
2018-05-04T10:38:06.484Z,2.47
2018-05-04T10:39:09.638Z,2.40
2018-05-04T10:40:12.182Z,2.90
2018-05-04T10:41:14.667Z,3.17
2018-05-04T10:42:17.149Z,2.50
2018-05-04T10:43:19.639Z,2.40
2018-05-04T10:44:22.126Z,2.50
2018-05-04T10:45:24.598Z,2.27
2018-05-04T10:46:27.112Z,2.83
2018-05-04T10:47:29.601Z,2.70
2018-05-04T10:48:32.073Z,2.57
2018-05-04T10:49:34.581Z,2.30
2018-05-04T10:50:37.263Z,2.20
2018-05-04T10:51:39.793Z,2.27
2018-05-04T10:52:42.299Z,2.10
2018-05-04T10:53:44.797Z,2.60
2018-05-04T10:54:47.290Z,2.67
2018-05-04T10:55:49.775Z,2.80
2018-05-04T10:56:52.274Z,2.50
2018-05-04T10:57:54.760Z,2.67
2018-05-04T10:58:57.265Z,2.47
2018-05-04T10:59:59.785Z,2.87
2018-05-04T11:01:02.255Z,2.73
2018-05-04T11:02:04.754Z,2.60
2018-05-04T11:03:07.241Z,2.80
2018-05-04T11:04:09.729Z,2.30
2018-05-04T11:05:12.226Z,2.50
2018-05-04T11:06:14.725Z,2.70
2018-05-04T11:07:17.228Z,2.63
2018-05-04T11:08:19.812Z,2.33
2018-05-04T11:09:22.320Z,2.30
2018-05-04T11:10:24.819Z,2.90
2018-05-04T11:11:27.290Z,2.53
2018-05-04T11:12:29.776Z,2.53
2018-05-04T11:13:32.246Z,2.20
2018-05-04T11:14:34.710Z,2.70
2018-05-04T11:15:37.241Z,2.40
2018-05-04T11:16:39.784Z,2.30
2018-05-04T11:17:42.261Z,2.70
2018-05-04T11:18:44.775Z,2.80
2018-05-04T11:19:47.245Z,3.13
2018-05-04T11:20:49.774Z,2.60
2018-05-04T11:21:52.251Z,2.93
2018-05-04T11:22:54.755Z,3.17
2018-05-04T11:23:57.356Z,2.67
2018-05-04T11:24:59.794Z,2.77
2018-05-04T11:26:02.329Z,2.53
2018-05-04T11:27:04.892Z,2.93
2018-05-04T11:28:07.363Z,2.70
2018-05-04T11:29:10.199Z,3.07
2018-05-04T11:30:12.704Z,2.60
2018-05-04T11:31:15.231Z,2.40
2018-05-04T11:32:17.728Z,2.83
2018-05-04T11:33:20.212Z,2.67
2018-05-04T11:34:22.723Z,2.23
2018-05-04T11:35:25.208Z,3.00
2018-05-04T11:36:27.748Z,2.07
2018-05-04T11:37:30.239Z,2.80
2018-05-04T11:38:32.745Z,3.10
2018-05-04T11:39:35.239Z,2.57
2018-05-04T11:40:37.712Z,2.93
2018-05-04T11:41:40.236Z,2.60
2018-05-04T11:42:42.712Z,3.20
2018-05-04T11:43:45.205Z,2.87
2018-05-04T11:44:47.732Z,2.53
2018-05-04T11:45:50.207Z,2.77
2018-05-04T11:46:52.716Z,2.90
2018-05-04T11:47:55.288Z,3.00
2018-05-04T11:48:57.797Z,2.70
2018-05-04T11:50:00.267Z,2.77
2018-05-04T11:51:02.753Z,2.80
2018-05-04T11:52:05.283Z,2.73
2018-05-04T11:53:07.808Z,2.60
2018-05-04T11:54:10.370Z,2.57
2018-05-04T11:55:12.932Z,2.27
2018-05-04T11:56:15.435Z,2.70
2018-05-04T11:57:17.948Z,2.40
2018-05-04T11:58:20.440Z,2.60
2018-05-04T11:59:22.962Z,2.60
2018-05-04T12:00:25.596Z,3.10
2018-05-04T12:01:28.081Z,2.60
2018-05-04T12:02:30.698Z,3.30
2018-05-04T12:03:33.124Z,2.80
2018-05-04T12:04:35.630Z,3.00
2018-05-04T12:05:38.212Z,2.27
2018-05-04T12:06:40.745Z,2.87
2018-05-04T12:07:43.288Z,3.00
2018-05-04T12:08:45.795Z,2.63
2018-05-04T12:09:48.280Z,2.50
2018-05-04T12:10:50.813Z,2.97
2018-05-04T12:11:53.305Z,2.67
2018-05-04T12:12:55.805Z,2.63
2018-05-04T12:13:58.403Z,2.90
2018-05-04T12:15:00.901Z,2.50
2018-05-04T12:16:03.406Z,2.73
2018-05-04T12:17:05.893Z,3.03
2018-05-04T12:18:08.409Z,2.63
2018-05-04T12:19:11.638Z,2.90
2018-05-04T12:20:14.106Z,2.40
2018-05-04T12:21:17.012Z,2.57
2018-05-04T12:22:19.492Z,2.63
2018-05-04T12:23:22.044Z,2.67
2018-05-04T12:24:24.558Z,2.43
2018-05-04T12:25:27.043Z,2.63
2018-05-04T12:26:29.552Z,2.73
2018-05-04T12:27:32.061Z,2.87
2018-05-04T12:28:34.568Z,2.40
2018-05-04T12:29:37.081Z,2.60
2018-05-04T12:30:39.653Z,2.70
2018-05-04T12:31:42.141Z,2.80
2018-05-04T12:32:44.618Z,2.93
2018-05-04T12:33:47.120Z,2.90
2018-05-04T12:34:49.639Z,2.43
2018-05-04T12:35:52.115Z,3.10
2018-05-04T12:36:54.605Z,2.40
2018-05-04T12:37:57.158Z,2.67
2018-05-04T12:38:59.666Z,2.40
2018-05-04T12:40:02.135Z,2.70
2018-05-04T12:41:04.603Z,2.30
2018-05-04T12:42:07.121Z,2.60
2018-05-04T12:43:09.632Z,2.77
2018-05-04T12:44:12.175Z,2.73
2018-05-04T12:45:14.645Z,2.40
2018-05-04T12:46:17.134Z,2.40
2018-05-04T12:47:19.636Z,2.50
2018-05-04T12:48:22.133Z,2.60
2018-05-04T12:49:24.660Z,3.00
2018-05-04T12:50:27.144Z,2.63
2018-05-04T12:51:29.652Z,2.60
2018-05-04T12:52:32.163Z,2.73
2018-05-04T12:53:34.714Z,3.10
2018-05-04T12:54:37.150Z,3.10
2018-05-04T12:55:39.619Z,3.00
2018-05-04T12:56:42.109Z,2.50
2018-05-04T12:57:44.594Z,2.57
2018-05-04T12:58:47.085Z,2.47
2018-05-04T12:59:49.607Z,2.67
2018-05-04T13:00:52.079Z,3.07
2018-05-04T13:01:54.587Z,2.27
2018-05-04T13:02:57.077Z,2.60
2018-05-04T13:03:59.633Z,2.83
2018-05-04T13:05:02.171Z,2.40
2018-05-04T13:06:04.664Z,2.20
2018-05-04T13:07:07.183Z,3.03
2018-05-04T13:08:09.661Z,2.63
2018-05-04T13:09:12.167Z,2.50
2018-05-04T13:10:14.683Z,2.30
2018-05-04T13:11:17.300Z,2.27
2018-05-04T13:12:19.846Z,3.00
2018-05-04T13:13:22.333Z,3.07
2018-05-04T13:14:24.826Z,3.20
2018-05-04T13:15:27.345Z,2.70
2018-05-04T13:16:29.878Z,2.90
2018-05-04T13:17:32.440Z,2.40
2018-05-04T13:18:34.892Z,2.73
2018-05-04T13:19:37.454Z,2.87
2018-05-04T13:20:39.963Z,2.60
2018-05-04T13:21:42.456Z,2.87
2018-05-04T13:22:45.033Z,2.47
2018-05-04T13:23:47.522Z,2.67
2018-05-04T13:24:50.048Z,2.83
2018-05-04T13:25:52.540Z,3.20
2018-05-04T13:26:55.013Z,2.97
2018-05-04T13:27:57.515Z,2.83
2018-05-04T13:29:00.005Z,2.50
2018-05-04T13:30:02.519Z,2.50
2018-05-04T13:31:05.042Z,2.60
2018-05-04T13:32:07.518Z,2.90
2018-05-04T13:33:09.998Z,2.40
2018-05-04T13:34:12.503Z,2.73
2018-05-04T13:35:14.989Z,2.67
2018-05-04T13:36:17.501Z,2.47
2018-05-04T13:37:20.012Z,2.30
2018-05-04T13:38:22.500Z,3.03
2018-05-04T13:39:25.064Z,2.53
2018-05-04T13:40:27.632Z,2.73
2018-05-04T13:41:30.140Z,2.47
2018-05-04T13:42:32.651Z,2.23
2018-05-04T13:43:35.209Z,2.83
2018-05-04T13:44:37.812Z,2.90
2018-05-04T13:45:40.334Z,2.40
2018-05-04T13:46:42.887Z,2.57
2018-05-04T13:47:45.451Z,2.73
2018-05-04T13:48:47.937Z,3.27
2018-05-04T13:49:50.429Z,2.50
2018-05-04T13:50:53.021Z,2.70
2018-05-04T13:51:55.485Z,3.37
2018-05-04T13:52:58.068Z,2.37